createdAt,value
2019-01-28T00:01:06.561Z,2.90
2019-01-28T00:03:34.031Z,3.37
2019-01-28T00:06:01.433Z,2.97
2019-01-28T00:08:28.854Z,3.00
2019-01-28T00:10:56.256Z,3.37
2019-01-28T00:13:23.704Z,3.40
2019-01-28T00:15:51.096Z,3.77
2019-01-28T00:18:18.538Z,3.73
2019-01-28T00:20:46.074Z,4.10
2019-01-28T00:23:13.512Z,5.03
2019-01-28T00:25:40.934Z,5.47
2019-01-28T00:28:08.665Z,4.93
2019-01-28T00:30:36.193Z,5.17
2019-01-28T00:33:06.405Z,5.00
2019-01-28T00:35:33.861Z,5.47
2019-01-28T00:38:01.279Z,6.00
2019-01-28T00:40:28.710Z,6.80
2019-01-28T00:42:56.105Z,7.03
2019-01-28T00:45:23.546Z,6.77
2019-01-28T00:47:50.999Z,7.30
2019-01-28T00:50:18.428Z,6.30
2019-01-28T00:52:45.828Z,6.60
2019-01-28T00:55:13.260Z,6.17
2019-01-28T00:57:40.674Z,5.33
2019-01-28T01:00:14.093Z,6.00
2019-01-28T01:02:41.513Z,6.37
2019-01-28T01:05:08.923Z,5.63
2019-01-28T01:07:36.395Z,5.10
2019-01-28T01:10:03.801Z,5.43
2019-01-28T01:12:31.227Z,6.03
2019-01-28T01:14:58.667Z,5.47
2019-01-28T01:17:26.067Z,5.93
2019-01-28T01:19:53.550Z,5.67
2019-01-28T01:22:20.933Z,4.93
2019-01-28T01:24:48.391Z,5.43
2019-01-28T01:27:15.894Z,4.70
2019-01-28T01:29:43.266Z,5.00
2019-01-28T01:32:10.687Z,4.90
2019-01-28T01:34:38.094Z,6.40
2019-01-28T01:37:05.550Z,5.97
2019-01-28T01:39:34.207Z,5.33
2019-01-28T01:42:01.575Z,5.60
2019-01-28T01:44:29.077Z,5.73
2019-01-28T01:46:56.673Z,5.60
2019-01-28T01:49:25.697Z,6.33
2019-01-28T01:51:53.101Z,5.63
2019-01-28T01:54:20.541Z,5.90
2019-01-28T01:56:47.982Z,5.90
2019-01-28T01:59:15.406Z,5.77
2019-01-28T02:01:42.836Z,6.17
2019-01-28T02:04:10.272Z,5.93
2019-01-28T02:06:37.682Z,5.17
2019-01-28T02:09:05.110Z,5.40
2019-01-28T02:11:32.550Z,5.43
2019-01-28T02:13:59.946Z,5.83
2019-01-28T02:16:27.354Z,5.03
2019-01-28T02:18:54.798Z,5.70
2019-01-28T02:21:22.257Z,4.90
2019-01-28T02:23:49.702Z,5.47
2019-01-28T02:26:17.124Z,4.20
2019-01-28T02:28:44.553Z,4.90
2019-01-28T02:31:11.975Z,5.40
2019-01-28T02:33:39.384Z,4.60
2019-01-28T02:36:06.817Z,4.90
2019-01-28T02:38:34.236Z,6.20
2019-01-28T02:41:01.661Z,5.10
2019-01-28T02:43:29.094Z,5.60
2019-01-28T02:45:56.546Z,5.40
2019-01-28T02:48:23.959Z,5.47
2019-01-28T02:50:51.422Z,4.97
2019-01-28T02:53:18.860Z,6.03
2019-01-28T02:55:46.315Z,5.03
2019-01-28T02:58:13.739Z,4.90
2019-01-28T03:00:41.127Z,5.03
2019-01-28T03:03:08.573Z,5.17
2019-01-28T03:05:35.981Z,5.40
2019-01-28T03:08:03.422Z,5.10
2019-01-28T03:10:30.855Z,4.90
2019-01-28T03:12:58.273Z,5.60
2019-01-28T03:15:25.677Z,5.97
2019-01-28T03:17:53.102Z,4.57
2019-01-28T03:20:20.532Z,5.30
2019-01-28T03:22:47.992Z,5.30
2019-01-28T03:25:15.417Z,5.07
2019-01-28T03:27:42.823Z,5.43
2019-01-28T03:30:10.284Z,4.80
2019-01-28T03:32:37.667Z,5.17
2019-01-28T03:35:05.092Z,4.73
2019-01-28T03:37:32.530Z,4.90
2019-01-28T03:40:00.022Z,4.23
2019-01-28T03:42:27.381Z,4.70
2019-01-28T03:44:54.812Z,5.07
2019-01-28T03:47:22.271Z,4.70
2019-01-28T03:49:49.690Z,4.27
2019-01-28T03:52:17.120Z,4.73
2019-01-28T03:54:44.568Z,4.83
2019-01-28T03:57:11.972Z,4.67
2019-01-28T03:59:39.416Z,5.33
2019-01-28T04:02:06.849Z,4.93
2019-01-28T04:04:34.243Z,3.77
2019-01-28T04:07:01.680Z,4.50
2019-01-28T04:09:29.087Z,4.37
2019-01-28T04:11:56.487Z,4.50
2019-01-28T04:14:23.943Z,4.83
2019-01-28T04:16:51.352Z,4.87
2019-01-28T04:19:18.798Z,4.63
2019-01-28T04:21:46.212Z,4.37
2019-01-28T04:24:13.628Z,4.13
2019-01-28T04:26:41.049Z,4.50
2019-01-28T04:29:08.486Z,4.43
2019-01-28T04:31:35.878Z,4.90
2019-01-28T04:34:03.327Z,5.77
2019-01-28T04:36:30.759Z,4.77
2019-01-28T04:38:58.147Z,4.80
2019-01-28T04:41:25.627Z,4.33
2019-01-28T04:43:53.033Z,4.07
2019-01-28T04:46:20.451Z,4.80
2019-01-28T04:48:47.889Z,5.00
2019-01-28T04:51:15.337Z,4.03
2019-01-28T04:53:42.755Z,4.60
2019-01-28T04:56:10.197Z,4.60
2019-01-28T04:58:37.614Z,5.00
2019-01-28T05:01:05.051Z,5.27
2019-01-28T05:03:32.444Z,5.23
2019-01-28T05:05:59.868Z,4.47
2019-01-28T05:08:27.310Z,5.10
2019-01-28T05:10:54.750Z,5.20
2019-01-28T05:13:22.160Z,6.00
2019-01-28T05:15:49.595Z,5.63
2019-01-28T05:18:17.027Z,6.17
2019-01-28T05:20:44.431Z,4.97
2019-01-28T05:23:11.861Z,5.17
2019-01-28T05:25:39.271Z,5.40
2019-01-28T05:28:06.695Z,5.23
2019-01-28T05:30:34.093Z,5.90
2019-01-28T05:33:01.519Z,4.47
2019-01-28T05:35:28.934Z,5.30
2019-01-28T05:37:56.379Z,5.90
2019-01-28T05:40:23.828Z,5.70
2019-01-28T05:42:51.246Z,5.57
2019-01-28T05:45:18.670Z,5.17
2019-01-28T05:47:46.073Z,4.80
2019-01-28T05:50:13.503Z,5.47
2019-01-28T05:52:40.911Z,5.40
2019-01-28T05:55:08.356Z,5.23
2019-01-28T05:57:35.766Z,5.10
2019-01-28T06:00:03.229Z,5.47
2019-01-28T06:02:30.660Z,6.20
2019-01-28T06:04:58.070Z,6.13
2019-01-28T06:07:25.533Z,5.87
2019-01-28T06:09:52.954Z,6.60
2019-01-28T06:12:20.378Z,6.03
2019-01-28T06:14:47.799Z,5.30
2019-01-28T06:17:15.228Z,6.10
2019-01-28T06:19:42.636Z,6.63
2019-01-28T06:22:10.067Z,5.10
2019-01-28T06:24:37.477Z,5.20
2019-01-28T06:27:04.919Z,5.67
2019-01-28T06:29:32.325Z,5.80
2019-01-28T06:31:59.725Z,5.00
2019-01-28T06:34:27.171Z,5.63
2019-01-28T06:36:54.579Z,5.23
2019-01-28T06:39:22.043Z,5.50
2019-01-28T06:41:49.442Z,6.13
2019-01-28T06:44:16.882Z,6.90
2019-01-28T06:46:44.294Z,6.63
2019-01-28T06:49:11.777Z,6.87
2019-01-28T06:51:39.188Z,6.57
2019-01-28T06:54:06.625Z,6.20
2019-01-28T06:56:34.090Z,5.80
2019-01-28T06:59:01.526Z,6.40
2019-01-28T07:01:28.951Z,6.30
2019-01-28T07:03:56.381Z,6.80
2019-01-28T07:06:23.783Z,6.80
2019-01-28T07:08:51.216Z,6.60
2019-01-28T07:11:18.631Z,6.40
2019-01-28T07:13:46.068Z,7.70
2019-01-28T07:16:13.502Z,7.07
2019-01-28T07:18:40.914Z,6.47
2019-01-28T07:21:08.356Z,6.73
2019-01-28T07:23:35.773Z,7.63
2019-01-28T07:26:03.198Z,7.23
2019-01-28T07:28:30.625Z,7.10
2019-01-28T07:30:58.021Z,6.67
2019-01-28T07:33:25.471Z,6.13
2019-01-28T07:35:54.744Z,7.47
2019-01-28T07:38:20.439Z,6.30
2019-01-28T07:40:47.869Z,7.10
2019-01-28T07:43:15.281Z,7.20
2019-01-28T07:45:45.351Z,8.20
2019-01-28T07:48:10.141Z,9.27
2019-01-28T07:50:37.564Z,8.10
2019-01-28T07:53:05.011Z,9.50
2019-01-28T07:55:32.431Z,9.83
2019-01-28T07:57:59.864Z,9.87
2019-01-28T08:00:30.131Z,9.13
2019-01-28T08:02:57.541Z,9.63
2019-01-28T08:05:24.981Z,8.97
2019-01-28T08:07:52.404Z,10.47
2019-01-28T08:10:19.823Z,9.33
2019-01-28T08:12:47.263Z,9.03
2019-01-28T08:15:14.679Z,6.57
2019-01-28T08:17:42.119Z,7.50
2019-01-28T08:20:11.554Z,5.83
2019-01-28T08:22:36.952Z,5.00
2019-01-28T08:25:04.394Z,4.73
2019-01-28T08:27:31.800Z,4.97
2019-01-28T08:29:59.224Z,4.33
2019-01-28T08:32:26.652Z,3.53
2019-01-28T08:34:54.056Z,3.80
2019-01-28T08:37:21.474Z,3.77
2019-01-28T08:39:48.871Z,3.43
2019-01-28T08:42:16.296Z,3.10
2019-01-28T08:44:43.709Z,3.23
2019-01-28T08:47:11.147Z,3.90
2019-01-28T08:49:38.557Z,2.97
2019-01-28T08:52:05.992Z,3.10
2019-01-28T08:54:33.387Z,2.93
2019-01-28T08:57:00.832Z,4.17
2019-01-28T08:59:28.232Z,3.60
2019-01-28T09:01:55.664Z,2.73
2019-01-28T09:04:23.079Z,3.77
2019-01-28T09:06:50.512Z,3.13
2019-01-28T09:09:17.906Z,3.63
2019-01-28T09:11:45.346Z,3.00
2019-01-28T09:14:12.777Z,3.20
2019-01-28T09:16:41.212Z,3.23
2019-01-28T09:19:08.641Z,4.03
2019-01-28T09:21:36.053Z,3.13
2019-01-28T09:24:03.475Z,3.00
2019-01-28T09:26:30.878Z,3.10
2019-01-28T09:28:58.311Z,3.10
2019-01-28T09:31:25.700Z,3.20
2019-01-28T09:33:53.121Z,2.57
2019-01-28T09:36:20.544Z,3.33
2019-01-28T09:38:47.969Z,3.50
2019-01-28T09:41:15.378Z,3.40
2019-01-28T09:43:42.802Z,3.40
2019-01-28T09:46:10.214Z,3.10
2019-01-28T09:48:37.642Z,4.13
2019-01-28T09:51:05.070Z,3.90
2019-01-28T09:53:32.465Z,2.97
2019-01-28T09:55:59.889Z,3.20
2019-01-28T09:58:27.295Z,3.47
2019-01-28T10:00:54.721Z,4.00
2019-01-28T10:03:22.133Z,3.83
2019-01-28T10:05:49.578Z,3.67
2019-01-28T10:08:16.964Z,3.50
2019-01-28T10:10:44.392Z,3.23
2019-01-28T10:13:11.831Z,3.83
2019-01-28T10:15:39.227Z,3.80
2019-01-28T10:18:06.631Z,4.23
2019-01-28T10:20:34.037Z,4.63
2019-01-28T10:23:01.468Z,4.03
2019-01-28T10:25:28.865Z,4.20
2019-01-28T10:27:56.294Z,5.00
2019-01-28T10:30:23.748Z,4.23
2019-01-28T10:32:51.191Z,4.00
2019-01-28T10:35:18.604Z,3.60
2019-01-28T10:37:46.037Z,4.00
2019-01-28T10:40:15.926Z,3.97
2019-01-28T10:42:43.351Z,4.27
2019-01-28T10:45:10.776Z,4.00
2019-01-28T10:47:38.184Z,4.10
2019-01-28T10:50:05.627Z,4.20
2019-01-28T10:52:33.034Z,4.50
2019-01-28T10:55:00.472Z,4.73
2019-01-28T10:57:27.901Z,4.57
2019-01-28T10:59:55.379Z,4.40
2019-01-28T11:02:22.786Z,4.60
2019-01-28T11:04:50.191Z,4.17
2019-01-28T11:07:17.629Z,3.97
2019-01-28T11:09:45.159Z,4.00
2019-01-28T11:12:12.556Z,6.37
2019-01-28T11:14:40.855Z,4.57
2019-01-28T11:17:08.335Z,3.83
2019-01-28T11:19:35.732Z,5.03
2019-01-28T11:22:03.239Z,4.33
2019-01-28T11:24:30.635Z,4.77
2019-01-28T11:26:58.050Z,3.20
2019-01-28T11:29:25.433Z,3.83
2019-01-28T11:31:52.875Z,4.10
2019-01-28T11:34:20.258Z,4.83
2019-01-28T11:36:47.722Z,4.07
2019-01-28T11:39:15.292Z,3.90
2019-01-28T11:41:42.523Z,4.20
2019-01-28T11:44:09.954Z,4.20
2019-01-28T11:46:37.509Z,3.10
2019-01-28T11:49:06.055Z,4.63
2019-01-28T11:51:32.227Z,3.63
2019-01-28T11:53:59.625Z,4.43
2019-01-28T11:56:27.068Z,3.20
2019-01-28T11:58:54.470Z,3.17
2019-01-28T12:01:21.944Z,3.20
2019-01-28T12:03:49.349Z,3.90
2019-01-28T12:06:16.774Z,3.23
2019-01-28T12:08:44.200Z,3.83
2019-01-28T12:11:11.606Z,3.63
2019-01-28T12:13:39.032Z,3.37
2019-01-28T12:16:06.428Z,3.40
2019-01-28T12:18:33.854Z,3.30
2019-01-28T12:21:01.266Z,3.07
2019-01-28T12:23:28.669Z,3.70
2019-01-28T12:25:56.092Z,2.60
2019-01-28T12:28:23.522Z,2.43
2019-01-28T12:30:50.958Z,2.80
2019-01-28T12:33:18.376Z,3.37
2019-01-28T12:35:45.819Z,3.30
2019-01-28T12:38:13.222Z,3.10
2019-01-28T12:40:40.665Z,2.77
2019-01-28T12:43:08.061Z,3.60
2019-01-28T12:45:35.491Z,2.60
2019-01-28T12:48:02.890Z,2.40
2019-01-28T12:50:30.339Z,2.57
2019-01-28T12:52:57.739Z,2.20
2019-01-28T12:55:27.863Z,1.97
2019-01-28T12:57:55.321Z,1.80
2019-01-28T13:00:28.887Z,2.20
2019-01-28T13:02:56.310Z,2.00
2019-01-28T13:05:23.704Z,1.53
2019-01-28T13:07:51.139Z,1.90
2019-01-28T13:10:21.179Z,1.80
2019-01-28T13:12:48.624Z,1.53
2019-01-28T13:15:19.180Z,1.80
2019-01-28T13:17:46.595Z,2.27
2019-01-28T13:20:13.995Z,1.77
2019-01-28T13:22:44.924Z,1.20
2019-01-28T13:25:12.600Z,1.20
2019-01-28T13:27:36.278Z,1.50
2019-01-28T13:30:03.688Z,1.60
2019-01-28T13:32:31.102Z,1.80
2019-01-28T13:34:58.519Z,2.00
2019-01-28T13:37:25.934Z,1.80
2019-01-28T13:39:53.360Z,2.03
2019-01-28T13:42:20.805Z,1.87
2019-01-28T13:44:48.220Z,1.90
2019-01-28T13:47:15.629Z,2.00
2019-01-28T13:49:43.054Z,2.40
2019-01-28T13:52:10.540Z,2.70
2019-01-28T13:54:37.951Z,3.03
2019-01-28T13:57:05.379Z,3.23
2019-01-28T13:59:32.809Z,3.13
2019-01-28T14:02:00.225Z,3.00
2019-01-28T14:04:27.651Z,2.60
2019-01-28T14:06:55.046Z,2.73
2019-01-28T14:09:22.477Z,3.30
2019-01-28T14:11:49.894Z,2.77
2019-01-28T14:14:17.314Z,2.87
2019-01-28T14:16:44.724Z,3.40
2019-01-28T14:19:12.174Z,3.07
2019-01-28T14:21:39.584Z,3.73
2019-01-28T14:24:07.000Z,3.20
2019-01-28T14:26:34.414Z,3.10
2019-01-28T14:29:01.840Z,2.83
2019-01-28T14:31:29.244Z,4.23
2019-01-28T14:33:56.637Z,4.00
2019-01-28T14:36:24.054Z,3.00
2019-01-28T14:38:51.446Z,3.00
2019-01-28T14:41:18.875Z,2.80
2019-01-28T14:43:46.302Z,2.37
2019-01-28T14:46:13.691Z,2.90
2019-01-28T14:48:48.622Z,2.93
2019-01-28T14:51:08.518Z,3.57
2019-01-28T14:53:35.955Z,3.60
2019-01-28T14:56:03.396Z,3.93
2019-01-28T14:58:30.793Z,3.97
2019-01-28T15:00:58.186Z,3.33
2019-01-28T15:03:25.609Z,3.60
2019-01-28T15:05:53.007Z,2.80
2019-01-28T15:08:20.419Z,2.37
2019-01-28T15:10:47.819Z,2.10
2019-01-28T15:13:15.251Z,2.77
2019-01-28T15:15:42.688Z,2.37
2019-01-28T15:18:10.119Z,2.30
2019-01-28T15:20:37.518Z,2.23
2019-01-28T15:23:04.946Z,1.80
2019-01-28T15:25:32.374Z,2.00
2019-01-28T15:27:59.766Z,2.00
2019-01-28T15:30:27.174Z,2.93
2019-01-28T15:32:54.675Z,3.03
2019-01-28T15:35:22.056Z,3.13
2019-01-28T15:37:49.457Z,3.03
2019-01-28T15:40:16.919Z,2.00
2019-01-28T15:42:44.332Z,2.60
2019-01-28T15:45:17.758Z,2.27
2019-01-28T15:47:45.172Z,2.47
2019-01-28T15:50:12.587Z,2.27
2019-01-28T15:52:40.022Z,2.63
2019-01-28T15:55:07.443Z,3.13
2019-01-28T15:57:34.872Z,3.27
2019-01-28T16:00:02.262Z,3.90
2019-01-28T16:02:29.679Z,3.93
2019-01-28T16:04:57.093Z,3.90
2019-01-28T16:07:24.514Z,4.00
2019-01-28T16:09:53.582Z,3.77
2019-01-28T16:12:19.362Z,3.23
2019-01-28T16:14:46.799Z,3.77
2019-01-28T16:17:14.235Z,3.97
2019-01-28T16:19:41.675Z,3.77
2019-01-28T16:22:09.101Z,3.70
2019-01-28T16:24:36.514Z,3.40
2019-01-28T16:27:03.937Z,3.20
2019-01-28T16:29:31.344Z,2.80
2019-01-28T16:31:58.772Z,3.07
2019-01-28T16:34:26.214Z,2.37
2019-01-28T16:36:53.602Z,2.70
2019-01-28T16:39:21.029Z,2.90
2019-01-28T16:41:48.696Z,3.00
2019-01-28T16:44:16.114Z,3.33
2019-01-28T16:46:43.519Z,2.80
2019-01-28T16:49:10.970Z,2.90
2019-01-28T16:51:38.389Z,2.80
2019-01-28T16:54:05.805Z,2.93
2019-01-28T16:56:33.227Z,3.40
2019-01-28T16:59:00.641Z,3.20
2019-01-28T17:01:28.085Z,3.07
2019-01-28T17:03:55.526Z,3.20
2019-01-28T17:06:22.922Z,2.80
2019-01-28T17:08:50.332Z,3.23
2019-01-28T17:11:17.763Z,3.77
2019-01-28T17:13:45.182Z,4.07
2019-01-28T17:16:12.630Z,4.27
2019-01-28T17:18:40.041Z,3.20
2019-01-28T17:21:07.505Z,3.70
2019-01-28T17:23:34.913Z,4.20
2019-01-28T17:26:02.330Z,3.90
2019-01-28T17:28:29.777Z,4.07
2019-01-28T17:30:57.218Z,3.37
2019-01-28T17:33:24.650Z,3.77
2019-01-28T17:35:52.176Z,3.70
2019-01-28T17:38:19.626Z,3.43
2019-01-28T17:40:47.066Z,3.40
2019-01-28T17:43:14.473Z,4.10
2019-01-28T17:45:41.926Z,3.57
2019-01-28T17:48:09.342Z,3.73
2019-01-28T17:50:43.334Z,3.57
2019-01-28T17:53:04.193Z,3.37
2019-01-28T17:55:31.646Z,3.60
2019-01-28T17:57:59.069Z,3.43
2019-01-28T18:00:38.571Z,4.37
2019-01-28T18:03:05.983Z,5.40
2019-01-28T18:05:33.409Z,5.37
2019-01-28T18:08:00.826Z,5.97
2019-01-28T18:10:28.292Z,7.23
2019-01-28T18:12:55.695Z,6.87
2019-01-28T18:15:25.901Z,7.87
2019-01-28T18:17:53.363Z,8.47
2019-01-28T18:20:20.784Z,7.33
2019-01-28T18:22:48.266Z,7.70
2019-01-28T18:25:33.564Z,7.17
2019-01-28T18:28:01.005Z,5.83
2019-01-28T18:30:28.482Z,5.73
2019-01-28T18:32:55.898Z,5.80
2019-01-28T18:35:23.350Z,5.77
2019-01-28T18:37:50.753Z,4.57
2019-01-28T18:40:18.179Z,4.60
2019-01-28T18:42:45.620Z,3.80
2019-01-28T18:45:18.846Z,4.03
2019-01-28T18:47:46.277Z,3.57
2019-01-28T18:50:13.714Z,3.53
2019-01-28T18:52:41.118Z,4.07
2019-01-28T18:55:08.582Z,3.27
2019-01-28T18:57:36.004Z,3.60
2019-01-28T19:00:03.437Z,3.90
2019-01-28T19:02:30.864Z,3.40
2019-01-28T19:04:58.315Z,3.73
2019-01-28T19:07:28.425Z,4.60
2019-01-28T19:09:55.952Z,3.50
2019-01-28T19:12:23.377Z,4.10
2019-01-28T19:14:53.731Z,3.57
2019-01-28T19:17:21.180Z,3.90
2019-01-28T19:19:52.196Z,3.53
2019-01-28T19:22:19.615Z,3.00
2019-01-28T19:24:47.076Z,4.13
2019-01-28T19:27:14.546Z,3.37
2019-01-28T19:29:41.972Z,3.13
2019-01-28T19:32:09.454Z,3.30
2019-01-28T19:34:36.879Z,3.30
2019-01-28T19:37:04.322Z,3.37
2019-01-28T19:39:31.737Z,3.70
2019-01-28T19:41:59.175Z,4.13
2019-01-28T19:44:26.607Z,4.53
2019-01-28T19:46:54.109Z,5.13
2019-01-28T19:49:21.532Z,4.13
2019-01-28T19:51:48.952Z,5.57
2019-01-28T19:54:16.438Z,5.27
2019-01-28T19:56:43.864Z,6.90
2019-01-28T19:59:11.312Z,8.07
2019-01-28T20:01:38.861Z,10.77
2019-01-28T20:04:06.288Z,10.67
2019-01-28T20:06:33.804Z,11.30
2019-01-28T20:09:01.233Z,11.30
2019-01-28T20:11:28.673Z,10.83
2019-01-28T20:13:56.102Z,11.10
2019-01-28T20:16:23.545Z,10.10
2019-01-28T20:18:50.964Z,10.93
2019-01-28T20:21:23.668Z,9.40
2019-01-28T20:23:45.879Z,9.73
2019-01-28T20:26:13.286Z,7.83
2019-01-28T20:28:40.759Z,7.27
2019-01-28T20:31:08.168Z,5.97
2019-01-28T20:33:35.579Z,4.90
2019-01-28T20:36:02.978Z,6.30
2019-01-28T20:38:30.421Z,4.40
2019-01-28T20:40:57.867Z,3.63
2019-01-28T20:43:25.267Z,3.03
2019-01-28T20:45:52.714Z,3.00
2019-01-28T20:48:20.125Z,2.70
2019-01-28T20:50:47.539Z,3.00
2019-01-28T20:53:15.004Z,3.07
2019-01-28T20:55:42.373Z,4.00
2019-01-28T20:58:09.836Z,5.77
2019-01-28T21:00:37.296Z,6.83
2019-01-28T21:03:04.751Z,7.40
2019-01-28T21:05:32.177Z,7.90
2019-01-28T21:07:59.622Z,8.67
2019-01-28T21:10:27.033Z,9.43
2019-01-28T21:12:54.473Z,10.20
2019-01-28T21:15:21.889Z,9.97
2019-01-28T21:17:49.320Z,9.93
2019-01-28T21:20:19.802Z,12.03
2019-01-28T21:22:47.245Z,10.40
2019-01-28T21:25:23.298Z,11.30
2019-01-28T21:27:50.772Z,11.13
2019-01-28T21:30:18.177Z,11.00
2019-01-28T21:32:45.617Z,11.33
2019-01-28T21:35:13.166Z,9.57
2019-01-28T21:37:40.643Z,8.60
2019-01-28T21:40:08.127Z,8.37
2019-01-28T21:42:35.568Z,8.27
2019-01-28T21:45:03.040Z,7.33
2019-01-28T21:47:30.492Z,7.47
2019-01-28T21:49:58.003Z,8.20
2019-01-28T21:52:25.410Z,8.33
2019-01-28T21:54:52.837Z,7.13
2019-01-28T21:57:20.246Z,5.63
2019-01-28T21:59:47.707Z,5.30
2019-01-28T22:02:15.112Z,5.33
2019-01-28T22:04:43.612Z,4.80
2019-01-28T22:07:10.068Z,4.10
2019-01-28T22:09:37.527Z,3.80
2019-01-28T22:12:04.952Z,3.57
2019-01-28T22:14:32.371Z,3.80
2019-01-28T22:16:59.814Z,4.53
2019-01-28T22:19:27.219Z,5.13
2019-01-28T22:21:59.251Z,5.10
2019-01-28T22:24:22.619Z,5.60
2019-01-28T22:26:50.041Z,5.93
2019-01-28T22:29:17.540Z,6.07
2019-01-28T22:31:44.991Z,7.60
2019-01-28T22:34:12.479Z,9.97
2019-01-28T22:36:39.973Z,11.30
2019-01-28T22:39:07.395Z,11.37
2019-01-28T22:41:35.073Z,12.83
2019-01-28T22:44:02.349Z,13.93
2019-01-28T22:46:29.797Z,15.93
2019-01-28T22:48:57.264Z,15.47
2019-01-28T22:51:24.721Z,16.63
2019-01-28T22:53:52.126Z,18.20
2019-01-28T22:56:19.587Z,17.23
2019-01-28T22:58:47.051Z,18.40
2019-01-28T23:01:16.949Z,17.30
2019-01-28T23:03:44.447Z,18.50
2019-01-28T23:06:11.887Z,17.57
2019-01-28T23:08:39.291Z,18.23
2019-01-28T23:11:06.726Z,17.63
2019-01-28T23:13:34.153Z,16.60
2019-01-28T23:16:01.582Z,17.27
2019-01-28T23:18:29.002Z,16.93
2019-01-28T23:20:56.448Z,18.57
2019-01-28T23:23:23.920Z,17.30
2019-01-28T23:25:51.291Z,17.03
2019-01-28T23:28:18.700Z,17.27
2019-01-28T23:30:46.140Z,18.77
2019-01-28T23:33:13.560Z,17.10
2019-01-28T23:35:41.021Z,16.37
2019-01-28T23:38:08.521Z,18.13
2019-01-28T23:40:35.942Z,16.07
2019-01-28T23:43:03.450Z,16.87
2019-01-28T23:45:30.827Z,16.67
2019-01-28T23:47:58.253Z,15.90
2019-01-28T23:50:25.669Z,16.27
2019-01-28T23:52:53.117Z,15.97
2019-01-28T23:55:20.530Z,15.00
2019-01-28T23:57:56.421Z,15.27
